Time;durP1;ratioP1;P1;durP2;ratioP2;P2;SDS_P1;SDS_P2;PMS_P1;PMS_P2;Temp;Humidity;BMP_temperature;BMP_pressure;BME280_temperature;BME280_humidity;BME280_pressure;Samples;Min_cycle;Max_cycle;Signal;HPM_P1;HPM_P2
2021/04/19 00:00:44;;;;;;;10.65;3.70;;;;;;;;;;5022756;28;20059;-57
2021/04/19 00:03:10;;;;;;;8.73;3.70;;;;;;;;;;5025659;28;20049;-52
2021/04/19 00:05:37;;;;;;;8.15;3.85;;;;;;;;;;5024293;28;20037;-56
2021/04/19 00:08:03;;;;;;;9.07;4.07;;;;;;;;;;5042238;28;20056;-54
2021/04/19 00:10:30;;;;;;;10.15;3.40;;;;;;;;;;5046052;28;20021;-58
2021/04/19 00:12:57;;;;;;;12.02;4.18;;;;;;;;;;5026708;28;20111;-56
2021/04/19 00:15:23;;;;;;;11.85;4.38;;;;;;;;;;5025966;28;20045;-56
2021/04/19 00:17:49;;;;;;;9.20;3.83;;;;;;;;;;5032773;28;20097;-55
2021/04/19 00:20:18;;;;;;;13.80;4.03;;;;;;;;;;5044965;28;20041;-56
2021/04/19 00:22:44;;;;;;;;;;;;;;;;;;5060849;28;20276;-56
2021/04/19 00:25:10;;;;;;;8.77;3.30;;;;;;;;;;5043836;28;19935;-55
2021/04/19 00:27:36;;;;;;;10.73;4.05;;;;;;;;;;5042545;28;20055;-57
2021/04/19 00:30:04;;;;;;;8.13;3.83;;;;;;;;;;5045361;28;20072;-54
2021/04/19 00:32:30;;;;;;;12.57;4.10;;;;;;;;;;5041080;28;20044;-56
2021/04/19 00:34:56;;;;;;;11.02;4.07;;;;;;;;;;5062170;28;20040;-53
2021/04/19 00:37:22;;;;;;;9.95;3.65;;;;;;;;;;5045476;28;20045;-53
2021/04/19 00:39:48;;;;;;;10.25;3.65;;;;;;;;;;5041911;28;20071;-55
2021/04/19 00:42:14;;;;;;;10.88;4.00;;;;;;;;;;5062095;28;20041;-55
2021/04/19 00:44:40;;;;;;;11.02;4.68;;;;;;;;;;5059443;28;20052;-55
2021/04/19 00:47:07;;;;;;;9.40;3.53;;;;;;;;;;5046112;28;20033;-54
2021/04/19 00:49:33;;;;;;;12.65;3.67;;;;;;;;;;5042300;28;20029;-56
2021/04/19 00:51:59;;;;;;;9.13;3.50;;;;;;;;;;5046417;28;20041;-53
2021/04/19 00:54:26;;;;;;;7.57;3.25;;;;;;;;;;5043301;28;20036;-54
2021/04/19 00:56:52;;;;;;;12.05;3.58;;;;;;;;;;5044843;28;20056;-54
2021/04/19 00:59:19;;;;;;;14.10;3.45;;;;;;;;;;5058335;28;20051;-57
2021/04/19 01:01:46;;;;;;;10.25;3.53;;;;;;;;;;5061381;28;20049;-54
2021/04/19 01:04:13;;;;;;;9.18;3.80;;;;;;;;;;5036162;28;20045;-56
2021/04/19 01:06:38;;;;;;;10.82;3.90;;;;;;;;;;5043364;28;20475;-53
2021/04/19 01:09:05;;;;;;;10.70;4.32;;;;;;;;;;5021586;28;20247;-54
2021/04/19 01:11:31;;;;;;;11.60;4.38;;;;;;;;;;5021915;28;20082;-53
2021/04/19 01:13:58;;;;;;;9.15;4.25;;;;;;;;;;5020091;28;20037;-57
2021/04/19 01:16:24;;;;;;;16.35;4.03;;;;;;;;;;5001213;28;20054;-55
2021/04/19 01:18:50;;;;;;;12.30;4.28;;;;;;;;;;5003378;28;20689;-56
2021/04/19 01:21:18;;;;;;;10.13;3.92;;;;;;;;;;5034300;28;20152;-56
2021/04/19 01:23:44;;;;;;;10.75;4.40;;;;;;;;;;5040484;28;20048;-56
2021/04/19 01:26:10;;;;;;;9.80;3.85;;;;;;;;;;5022192;28;20049;-54
2021/04/19 01:28:38;;;;;;;8.25;3.85;;;;;;;;;;5021696;28;20049;-56
2021/04/19 01:31:04;;;;;;;11.88;4.25;;;;;;;;;;5029806;28;20362;-55
2021/04/19 01:33:32;;;;;;;10.30;3.90;;;;;;;;;;5036388;28;20062;-55
2021/04/19 01:35:58;;;;;;;;;;;;;;;;;;5013660;28;20034;-56
2021/04/19 01:38:26;;;;;;;13.05;4.20;;;;;;;;;;4999115;28;20268;-55
2021/04/19 01:40:54;;;;;;;9.30;3.85;;;;;;;;;;5013119;28;20038;-54
2021/04/19 01:43:20;;;;;;;12.00;4.18;;;;;;;;;;5001712;28;20353;-56
2021/04/19 01:45:47;;;;;;;10.38;3.75;;;;;;;;;;5010909;28;20135;-58
2021/04/19 01:48:13;;;;;;;10.48;3.72;;;;;;;;;;5040877;28;20037;-57
2021/04/19 01:50:39;;;;;;;10.50;3.85;;;;;;;;;;5037100;28;20053;-54
2021/04/19 01:53:05;;;;;;;9.60;4.20;;;;;;;;;;5023846;28;20041;-56
2021/04/19 01:55:33;;;;;;;9.35;4.18;;;;;;;;;;5017559;28;20054;-57
2021/04/19 01:58:01;;;;;;;9.23;3.92;;;;;;;;;;5040885;28;20061;-54
2021/04/19 02:00:27;;;;;;;14.03;4.37;;;;;;;;;;5036297;28;20052;-55
2021/04/19 02:02:59;;;;;;;10.00;3.45;;;;;;;;;;5033936;28;20056;-53
2021/04/19 02:05:30;;;;;;;11.35;3.85;;;;;;;;;;5040268;28;20051;-55
2021/04/19 02:08:00;;;;;;;10.40;3.88;;;;;;;;;;5050048;28;20124;-51
2021/04/19 02:10:31;;;;;;;9.18;3.65;;;;;;;;;;5040079;28;20139;-57
2021/04/19 02:13:00;;;;;;;8.93;3.35;;;;;;;;;;5021033;28;20045;-55
2021/04/19 02:15:32;;;;;;;10.70;3.70;;;;;;;;;;5012207;28;20042;-55
2021/04/19 02:18:11;;;;;;;9.00;3.63;;;;;;;;;;5031981;28;20051;-56
2021/04/19 02:20:41;;;;;;;11.77;4.15;;;;;;;;;;5042232;28;20049;-55
2021/04/19 02:23:09;;;;;;;9.73;3.78;;;;;;;;;;5025277;28;20054;-55
2021/04/19 02:25:39;;;;;;;9.50;4.28;;;;;;;;;;5022004;28;20082;-55
2021/04/19 02:28:07;;;;;;;11.57;3.85;;;;;;;;;;5016491;28;20136;-56
2021/04/19 02:30:34;;;;;;;12.77;4.13;;;;;;;;;;5019524;28;20061;-54
2021/04/19 02:33:02;;;;;;;13.70;3.72;;;;;;;;;;5016716;28;20034;-52
2021/04/19 02:35:32;;;;;;;9.43;3.50;;;;;;;;;;5000591;28;20070;-56
2021/04/19 02:37:58;;;;;;;8.90;3.92;;;;;;;;;;5003163;28;20037;-58
2021/04/19 02:40:25;;;;;;;9.88;4.15;;;;;;;;;;5020080;28;20041;-54
2021/04/19 02:42:52;;;;;;;13.40;4.00;;;;;;;;;;5016054;28;20042;-56
2021/04/19 02:45:22;;;;;;;12.98;4.38;;;;;;;;;;5020880;28;20078;-54
2021/04/19 02:47:48;;;;;;;11.52;3.88;;;;;;;;;;5021145;28;20049;-55
2021/04/19 02:50:16;;;;;;;9.70;4.22;;;;;;;;;;5023074;28;20042;-54
2021/04/19 02:52:43;;;;;;;10.85;5.00;;;;;;;;;;5021196;28;20030;-57
2021/04/19 02:55:09;;;;;;;11.00;4.43;;;;;;;;;;5038851;28;20060;-52
2021/04/19 02:57:38;;;;;;;13.63;4.63;;;;;;;;;;5042436;28;20037;-56
2021/04/19 03:00:06;;;;;;;12.05;4.25;;;;;;;;;;5036398;28;20074;-56
2021/04/19 03:02:34;;;;;;;10.13;4.43;;;;;;;;;;5015522;28;20081;-56
2021/04/19 03:05:00;;;;;;;12.57;5.30;;;;;;;;;;5039570;28;20408;-54
2021/04/19 03:07:29;;;;;;;12.27;5.00;;;;;;;;;;5024967;28;20064;-54
2021/04/19 03:09:57;;;;;;;14.40;4.82;;;;;;;;;;5054226;28;20124;-56
2021/04/19 03:12:25;;;;;;;13.57;4.50;;;;;;;;;;5045529;28;20142;-54
2021/04/19 03:14:53;;;;;;;14.77;4.75;;;;;;;;;;5043168;28;20055;-55
2021/04/19 03:17:20;;;;;;;11.57;4.82;;;;;;;;;;5047244;28;20037;-51
2021/04/19 03:19:50;;;;;;;9.25;4.47;;;;;;;;;;5042248;28;20055;-54
2021/04/19 03:22:16;;;;;;;9.52;4.00;;;;;;;;;;5045859;28;20045;-56
2021/04/19 03:24:43;;;;;;;10.68;4.70;;;;;;;;;;5042177;28;20037;-55
2021/04/19 03:27:10;;;;;;;10.10;3.95;;;;;;;;;;5045772;28;20099;-55
2021/04/19 03:29:37;;;;;;;12.32;5.32;;;;;;;;;;5041711;28;20041;-50
2021/04/19 03:32:05;;;;;;;10.50;4.30;;;;;;;;;;5044851;28;20058;-53
2021/04/19 03:34:31;;;;;;;;;;;;;;;;;;5043466;28;20052;-54
2021/04/19 03:37:00;;;;;;;8.60;3.60;;;;;;;;;;5060827;28;19928;-53
2021/04/19 03:39:27;;;;;;;12.57;4.22;;;;;;;;;;5045938;28;20052;-53
2021/04/19 03:41:54;;;;;;;13.07;5.15;;;;;;;;;;5043708;28;20029;-54
2021/04/19 03:44:22;;;;;;;12.43;5.30;;;;;;;;;;5045286;28;20036;-52
2021/04/19 03:46:50;;;;;;;15.50;5.45;;;;;;;;;;5061776;28;20033;-51
2021/04/19 03:49:19;;;;;;;13.77;5.18;;;;;;;;;;5046176;28;20048;-56
2021/04/19 03:51:44;;;;;;;;;;;;;;;;;;5046023;28;20041;-55
2021/04/19 03:54:12;;;;;;;10.38;4.10;;;;;;;;;;5062896;28;19944;-52
2021/04/19 03:56:40;;;;;;;10.90;4.28;;;;;;;;;;5029445;28;20372;-56
2021/04/19 03:59:09;;;;;;;12.98;4.93;;;;;;;;;;5023295;28;20029;-53
2021/04/19 04:01:36;;;;;;;9.52;4.80;;;;;;;;;;5032217;28;20422;-57
2021/04/19 04:04:02;;;;;;;11.45;4.60;;;;;;;;;;5040516;28;20404;-56
2021/04/19 04:06:29;;;;;;;12.43;5.00;;;;;;;;;;5036935;28;20114;-53
2021/04/19 04:08:57;;;;;;;17.17;5.10;;;;;;;;;;5023693;28;20049;-51
2021/04/19 04:11:24;;;;;;;17.75;5.07;;;;;;;;;;5033262;28;20042;-56
2021/04/19 04:13:50;;;;;;;19.02;5.13;;;;;;;;;;5021033;28;20127;-57
2021/04/19 04:16:16;;;;;;;14.38;4.80;;;;;;;;;;5020655;28;20053;-56
2021/04/19 04:18:42;;;;;;;14.57;5.05;;;;;;;;;;5021354;28;20177;-56
2021/04/19 04:21:09;;;;;;;14.68;5.47;;;;;;;;;;5019595;28;20193;-56
2021/04/19 04:23:35;;;;;;;13.75;5.07;;;;;;;;;;5020159;28;20073;-55
2021/04/19 04:26:01;;;;;;;19.50;5.43;;;;;;;;;;5023779;28;20041;-55
2021/04/19 04:28:28;;;;;;;20.38;5.22;;;;;;;;;;5035051;28;20053;-53
2021/04/19 04:30:54;;;;;;;13.18;4.97;;;;;;;;;;5041697;28;20218;-53
2021/04/19 04:33:20;;;;;;;10.57;4.75;;;;;;;;;;5034891;28;20061;-50
2021/04/19 04:35:46;;;;;;;13.95;5.43;;;;;;;;;;5022283;28;20034;-55
2021/04/19 04:38:12;;;;;;;12.02;5.40;;;;;;;;;;5018336;28;20056;-52
2021/04/19 04:40:38;;;;;;;17.55;5.93;;;;;;;;;;5021794;28;20172;-55
2021/04/19 04:43:06;;;;;;;13.35;5.10;;;;;;;;;;5027123;28;20033;-50
2021/04/19 04:45:33;;;;;;;15.20;5.25;;;;;;;;;;5035516;28;20049;-52
2021/04/19 04:48:00;;;;;;;13.73;4.95;;;;;;;;;;5024779;28;20053;-53
2021/04/19 04:50:30;;;;;;;10.98;5.03;;;;;;;;;;5009237;28;20052;-54
2021/04/19 04:52:58;;;;;;;19.63;5.43;;;;;;;;;;5006920;28;20063;-50
2021/04/19 04:55:24;;;;;;;14.27;4.93;;;;;;;;;;5009629;28;20045;-55
2021/04/19 04:57:51;;;;;;;12.30;5.28;;;;;;;;;;5004166;28;20076;-56
2021/04/19 05:00:20;;;;;;;11.95;5.40;;;;;;;;;;5009056;28;20038;-55
2021/04/19 05:02:48;;;;;;;20.90;6.07;;;;;;;;;;5008224;28;20050;-52
2021/04/19 05:05:15;;;;;;;12.07;4.95;;;;;;;;;;5017668;28;20048;-55
2021/04/19 05:07:41;;;;;;;16.67;6.22;;;;;;;;;;5015436;28;20045;-51
2021/04/19 05:10:09;;;;;;;12.85;5.22;;;;;;;;;;5010741;28;20046;-51
2021/04/19 05:12:37;;;;;;;17.80;5.45;;;;;;;;;;5012281;28;20042;-51
2021/04/19 05:15:06;;;;;;;12.38;5.00;;;;;;;;;;5013969;28;20061;-54
2021/04/19 05:17:32;;;;;;;13.27;5.07;;;;;;;;;;5014025;28;20045;-57
2021/04/19 05:20:05;;;;;;;16.60;5.88;;;;;;;;;;5010277;28;20045;-54
2021/04/19 05:22:30;;;;;;;11.80;5.00;;;;;;;;;;5014285;28;20052;-54
2021/04/19 05:24:56;;;;;;;13.35;5.65;;;;;;;;;;5009694;28;20058;-53
2021/04/19 05:27:23;;;;;;;11.40;5.50;;;;;;;;;;5012546;28;20119;-53
2021/04/19 05:29:49;;;;;;;16.08;6.28;;;;;;;;;;5009998;28;20131;-56
2021/04/19 05:32:17;;;;;;;15.27;6.65;;;;;;;;;;5011979;28;20042;-55
2021/04/19 05:34:43;;;;;;;13.25;6.00;;;;;;;;;;5014131;28;20042;-50
2021/04/19 05:37:11;;;;;;;19.20;5.90;;;;;;;;;;5010842;28;20065;-54
2021/04/19 05:39:37;;;;;;;17.00;6.03;;;;;;;;;;5010651;28;20129;-53
2021/04/19 05:42:04;;;;;;;18.27;6.90;;;;;;;;;;5015446;28;20054;-51
2021/04/19 05:44:31;;;;;;;15.82;6.32;;;;;;;;;;5011378;28;20041;-53
2021/04/19 05:46:57;;;;;;;17.48;5.63;;;;;;;;;;5012469;28;20057;-52
2021/04/19 05:49:24;;;;;;;18.15;6.65;;;;;;;;;;5013851;28;20049;-54
2021/04/19 05:51:50;;;;;;;14.98;6.15;;;;;;;;;;5010090;28;20061;-55
2021/04/19 05:54:17;;;;;;;14.70;5.82;;;;;;;;;;5011306;28;20061;-54
2021/04/19 05:56:50;;;;;;;19.80;6.45;;;;;;;;;;5012195;28;20055;-57
2021/04/19 05:59:20;;;;;;;16.85;6.00;;;;;;;;;;5012079;28;20065;-52
2021/04/19 06:01:47;;;;;;;18.92;6.47;;;;;;;;;;5004385;28;20050;-55
2021/04/19 06:04:17;;;;;;;17.55;6.75;;;;;;;;;;5034601;28;20527;-54
2021/04/19 06:06:47;;;;;;;16.00;6.30;;;;;;;;;;5009577;28;20491;-54
2021/04/19 06:09:15;;;;;;;13.23;5.75;;;;;;;;;;5019940;28;20038;-55
2021/04/19 06:11:43;;;;;;;23.90;6.37;;;;;;;;;;5017795;28;20034;-57
2021/04/19 06:14:09;;;;;;;17.02;6.22;;;;;;;;;;5022815;28;20026;-54
2021/04/19 06:16:37;;;;;;;21.83;6.78;;;;;;;;;;5019012;28;20057;-51
2021/04/19 06:19:05;;;;;;;14.75;6.38;;;;;;;;;;5019762;28;20116;-54
2021/04/19 06:21:31;;;;;;;17.50;6.22;;;;;;;;;;5017994;28;20127;-56
2021/04/19 06:23:57;;;;;;;15.82;6.57;;;;;;;;;;5020947;28;20038;-51
2021/04/19 06:26:23;;;;;;;13.90;6.47;;;;;;;;;;5000287;28;20052;-53
2021/04/19 06:28:50;;;;;;;20.88;6.80;;;;;;;;;;5021825;28;20037;-56
2021/04/19 06:31:17;;;;;;;15.80;7.07;;;;;;;;;;5015967;28;20030;-55
2021/04/19 06:33:52;;;;;;;14.32;6.88;;;;;;;;;;5019765;28;20052;-54
2021/04/19 06:36:18;;;;;;;19.15;6.85;;;;;;;;;;5018967;28;20049;-51
2021/04/19 06:38:44;;;;;;;16.98;6.53;;;;;;;;;;5016858;28;20045;-52
2021/04/19 06:41:10;;;;;;;15.60;6.20;;;;;;;;;;5019880;28;20037;-54
2021/04/19 06:43:36;;;;;;;15.52;6.80;;;;;;;;;;5015875;28;20046;-51
2021/04/19 06:46:03;;;;;;;18.40;6.43;;;;;;;;;;5022325;28;20157;-55
2021/04/19 06:48:30;;;;;;;18.67;6.57;;;;;;;;;;5016301;28;20046;-51
2021/04/19 06:50:56;;;;;;;15.00;5.72;;;;;;;;;;5017977;28;20066;-56
2021/04/19 06:53:23;;;;;;;24.90;7.13;;;;;;;;;;5015871;28;20042;-51
2021/04/19 06:55:49;;;;;;;18.35;7.15;;;;;;;;;;5021724;28;20037;-51
2021/04/19 06:58:17;;;;;;;19.13;7.30;;;;;;;;;;5016121;28;20167;-56
2021/04/19 07:00:43;;;;;;;14.52;6.82;;;;;;;;;;5021024;28;20042;-56
2021/04/19 07:03:10;;;;;;;22.63;7.80;;;;;;;;;;5028340;28;20045;-58
2021/04/19 07:05:37;;;;;;;19.63;7.60;;;;;;;;;;5043250;28;20032;-55
2021/04/19 07:08:07;;;;;;;23.13;7.85;;;;;;;;;;5039946;28;20044;-55
2021/04/19 07:10:33;;;;;;;18.30;7.03;;;;;;;;;;5060151;28;20130;-58
2021/04/19 07:13:00;;;;;;;19.00;6.88;;;;;;;;;;5057202;28;20045;-57
2021/04/19 07:15:27;;;;;;;16.45;7.28;;;;;;;;;;5059133;28;20060;-58
2021/04/19 07:17:53;;;;;;;19.08;7.53;;;;;;;;;;5043189;28;20041;-53
2021/04/19 07:20:20;;;;;;;16.17;6.70;;;;;;;;;;5039016;28;20064;-56
2021/04/19 07:22:45;;;;;;;17.85;7.75;;;;;;;;;;5060984;28;20045;-54
2021/04/19 07:25:14;;;;;;;18.60;7.50;;;;;;;;;;5055450;28;20037;-58
2021/04/19 07:27:40;;;;;;;;;;;;;;;;;;5042501;28;20044;-57
2021/04/19 07:30:08;;;;;;;14.73;6.90;;;;;;;;;;5053839;28;20057;-53
2021/04/19 07:32:38;;;;;;;19.13;6.38;;;;;;;;;;5042868;28;20048;-56
2021/04/19 07:35:05;;;;;;;21.55;8.15;;;;;;;;;;5042395;28;20032;-57
2021/04/19 07:37:33;;;;;;;18.73;7.65;;;;;;;;;;5046141;28;20041;-56
2021/04/19 07:40:02;;;;;;;19.55;7.57;;;;;;;;;;5040711;28;20116;-56
2021/04/19 07:42:28;;;;;;;21.63;8.05;;;;;;;;;;5046295;28;20040;-54
2021/04/19 07:44:54;;;;;;;16.70;7.72;;;;;;;;;;5042786;28;20059;-52
2021/04/19 07:47:29;;;;;;;18.33;7.45;;;;;;;;;;5045557;28;20129;-50
2021/04/19 07:49:56;;;;;;;17.98;7.88;;;;;;;;;;5060162;28;20056;-55
2021/04/19 07:52:23;;;;;;;16.45;7.30;;;;;;;;;;5045621;28;20047;-57
2021/04/19 07:55:04;;;;;;;14.98;8.00;;;;;;;;;;5042485;28;20056;-55
2021/04/19 07:57:30;;;;;;;22.35;8.23;;;;;;;;;;5044237;28;20041;-55
2021/04/19 07:59:57;;;;;;;18.35;8.02;;;;;;;;;;5042185;28;20069;-55
2021/04/19 08:02:23;;;;;;;18.73;7.80;;;;;;;;;;5044478;28;20043;-51
2021/04/19 08:04:50;;;;;;;19.77;7.80;;;;;;;;;;5045934;28;20029;-56
2021/04/19 08:07:19;;;;;;;18.60;8.20;;;;;;;;;;5041652;28;20059;-56
2021/04/19 08:09:53;;;;;;;16.40;7.72;;;;;;;;;;5062346;28;20167;-53
2021/04/19 08:12:30;;;;;;;18.63;8.45;;;;;;;;;;5043672;28;20044;-52
2021/04/19 08:14:56;;;;;;;20.80;8.43;;;;;;;;;;5047012;28;20041;-55
2021/04/19 08:17:26;;;;;;;19.02;8.85;;;;;;;;;;5044595;28;20044;-55
2021/04/19 08:19:52;;;;;;;15.07;7.28;;;;;;;;;;5044617;28;20040;-58
2021/04/19 08:22:19;;;;;;;20.83;7.43;;;;;;;;;;5042662;28;20047;-57
2021/04/19 08:24:46;;;;;;;15.07;7.35;;;;;;;;;;5063143;28;20127;-53
2021/04/19 08:27:21;;;;;;;15.25;7.82;;;;;;;;;;5041613;28;20044;-56
2021/04/19 08:29:53;;;;;;;19.85;7.38;;;;;;;;;;5060388;28;20037;-55
2021/04/19 08:32:20;;;;;;;16.75;7.80;;;;;;;;;;5040450;28;20036;-57
2021/04/19 08:34:49;;;;;;;13.40;6.68;;;;;;;;;;5043322;28;20028;-58
2021/04/19 08:37:17;;;;;;;15.65;7.38;;;;;;;;;;5039554;28;20029;-57
2021/04/19 08:39:44;;;;;;;17.50;7.70;;;;;;;;;;5045329;28;20037;-57
2021/04/19 08:42:10;;;;;;;16.63;8.07;;;;;;;;;;5059180;28;20042;-58
2021/04/19 08:44:37;;;;;;;18.30;7.80;;;;;;;;;;5044287;28;20089;-57
2021/04/19 08:47:03;;;;;;;18.33;7.95;;;;;;;;;;5041239;28;20049;-58
2021/04/19 08:49:30;;;;;;;16.10;7.07;;;;;;;;;;5044059;28;20048;-57
2021/04/19 08:51:56;;;;;;;15.90;7.10;;;;;;;;;;5039713;28;20090;-57
2021/04/19 08:54:23;;;;;;;15.57;6.72;;;;;;;;;;5043329;28;20159;-57
2021/04/19 08:56:49;;;;;;;12.70;6.70;;;;;;;;;;5042921;28;20041;-56
2021/04/19 08:59:16;;;;;;;12.35;5.93;;;;;;;;;;5040380;28;20394;-57
2021/04/19 09:01:43;;;;;;;12.73;6.28;;;;;;;;;;5053158;28;20125;-56
2021/04/19 09:04:09;;;;;;;13.80;6.82;;;;;;;;;;5039602;28;20041;-58
2021/04/19 09:06:39;;;;;;;16.80;7.18;;;;;;;;;;5044958;28;20041;-56
2021/04/19 09:09:06;;;;;;;14.75;7.45;;;;;;;;;;5039414;28;20041;-57
2021/04/19 09:11:33;;;;;;;11.63;6.20;;;;;;;;;;5044635;28;20041;-56
2021/04/19 09:14:03;;;;;;;13.95;6.97;;;;;;;;;;5059323;28;20040;-50
2021/04/19 09:16:35;;;;;;;15.70;6.72;;;;;;;;;;5044775;28;20037;-58
2021/04/19 09:19:03;;;;;;;13.43;6.10;;;;;;;;;;5039747;28;20166;-58
2021/04/19 09:21:34;;;;;;;18.92;7.50;;;;;;;;;;5047730;28;20125;-57
2021/04/19 09:24:00;;;;;;;16.13;7.20;;;;;;;;;;5042301;28;20064;-56
2021/04/19 09:26:45;;;;;;;13.27;6.40;;;;;;;;;;5062673;28;20036;-55
2021/04/19 09:29:11;;;;;;;15.70;6.20;;;;;;;;;;5041967;28;20051;-58
2021/04/19 09:31:56;;;;;;;11.38;5.60;;;;;;;;;;5043899;28;20041;-53
2021/04/19 09:34:37;;;;;;;16.60;6.20;;;;;;;;;;5041575;28;20028;-56
2021/04/19 09:37:03;;;;;;;11.73;5.68;;;;;;;;;;5062879;28;20295;-56
2021/04/19 09:39:47;;;;;;;11.02;5.13;;;;;;;;;;5041797;28;20044;-55
2021/04/19 09:42:13;;;;;;;13.05;5.78;;;;;;;;;;5046799;28;20033;-55
2021/04/19 09:44:48;;;;;;;11.38;4.72;;;;;;;;;;5059064;28;20037;-54
2021/04/19 09:47:45;;;;;;;10.25;4.95;;;;;;;;;;5043120;28;20040;-56
2021/04/19 09:50:13;;;;;;;10.48;4.82;;;;;;;;;;5039075;28;20048;-58
2021/04/19 09:52:39;;;;;;;12.05;4.85;;;;;;;;;;5062253;28;20041;-57
2021/04/19 09:55:06;;;;;;;15.75;6.05;;;;;;;;;;5049081;28;20060;-58
2021/04/19 09:57:32;;;;;;;11.45;5.35;;;;;;;;;;5044277;28;20036;-53
2021/04/19 09:59:58;;;;;;;9.98;4.55;;;;;;;;;;5059347;28;20071;-56
2021/04/19 10:02:24;;;;;;;13.77;5.95;;;;;;;;;;5044003;28;20086;-57
2021/04/19 10:04:50;;;;;;;11.82;5.25;;;;;;;;;;5039617;28;20072;-58
2021/04/19 10:07:18;;;;;;;11.65;5.95;;;;;;;;;;5056729;28;20122;-58
2021/04/19 10:09:46;;;;;;;13.13;5.63;;;;;;;;;;5041974;28;20061;-59
2021/04/19 10:12:15;;;;;;;11.10;4.88;;;;;;;;;;5060776;28;20045;-57
2021/04/19 10:14:42;;;;;;;9.70;4.72;;;;;;;;;;5044162;28;20151;-59
2021/04/19 10:17:15;;;;;;;9.95;4.72;;;;;;;;;;5041146;28;20037;-59
2021/04/19 10:19:44;;;;;;;10.48;5.30;;;;;;;;;;5042393;28;20122;-59
2021/04/19 10:22:11;;;;;;;10.32;4.75;;;;;;;;;;5039627;28;20045;-58
2021/04/19 10:24:50;;;;;;;10.80;5.13;;;;;;;;;;5043489;28;20044;-57
2021/04/19 10:27:22;;;;;;;10.63;5.32;;;;;;;;;;5039702;28;20037;-58
2021/04/19 10:29:49;;;;;;;9.90;4.55;;;;;;;;;;5042725;28;20052;-56
2021/04/19 10:32:26;;;;;;;8.02;4.18;;;;;;;;;;5038907;28;20048;-58
2021/04/19 10:34:52;;;;;;;11.00;4.50;;;;;;;;;;5061207;28;20424;-58
2021/04/19 10:37:18;;;;;;;11.38;4.75;;;;;;;;;;5057298;28;20053;-58
2021/04/19 10:39:45;;;;;;;12.45;5.50;;;;;;;;;;5043682;28;20033;-59
2021/04/19 10:42:11;;;;;;;9.30;4.45;;;;;;;;;;5056774;28;20037;-58
2021/04/19 10:44:38;;;;;;;10.80;4.43;;;;;;;;;;5042827;28;20110;-56
2021/04/19 10:47:05;;;;;;;12.68;4.85;;;;;;;;;;5039502;28;20056;-58
2021/04/19 10:49:31;;;;;;;13.30;4.68;;;;;;;;;;5043169;28;20041;-56
2021/04/19 10:51:59;;;;;;;9.13;4.32;;;;;;;;;;5057792;28;20048;-57
2021/04/19 10:54:26;;;;;;;10.55;4.35;;;;;;;;;;5045669;28;20077;-59
2021/04/19 10:56:53;;;;;;;9.05;3.97;;;;;;;;;;5041084;28;20045;-59
2021/04/19 10:59:23;;;;;;;10.95;3.75;;;;;;;;;;5043389;28;20132;-58
2021/04/19 11:01:56;;;;;;;7.55;3.92;;;;;;;;;;5039459;28;20033;-59
2021/04/19 11:04:22;;;;;;;8.18;4.05;;;;;;;;;;5020414;28;20050;-58
2021/04/19 11:06:48;;;;;;;8.55;4.15;;;;;;;;;;5018833;28;20038;-59
2021/04/19 11:09:16;;;;;;;9.05;4.00;;;;;;;;;;5039222;28;20025;-57
2021/04/19 11:11:43;;;;;;;9.18;3.78;;;;;;;;;;5041614;28;20045;-58
2021/04/19 11:14:13;;;;;;;9.57;4.50;;;;;;;;;;5039144;28;20081;-58
2021/04/19 11:16:53;;;;;;;9.48;4.82;;;;;;;;;;5042734;28;20044;-54
2021/04/19 11:19:41;;;;;;;7.95;3.88;;;;;;;;;;5037581;28;20038;-57
2021/04/19 11:22:07;;;;;;;;;;;;;;;;;;5043500;28;20045;-58
2021/04/19 11:24:36;;;;;;;11.70;4.65;;;;;;;;;;5037987;28;19917;-58
2021/04/19 11:27:07;;;;;;;10.73;4.63;;;;;;;;;;5043465;28;20045;-59
2021/04/19 11:29:40;;;;;;;8.60;4.15;;;;;;;;;;5039468;28;20056;-58
2021/04/19 11:32:07;;;;;;;9.93;4.03;;;;;;;;;;5043162;28;20048;-58
2021/04/19 11:34:37;;;;;;;8.57;4.28;;;;;;;;;;5037169;28;20037;-58
2021/04/19 11:37:03;;;;;;;7.85;4.32;;;;;;;;;;5042154;28;20052;-58
2021/04/19 11:39:32;;;;;;;10.43;4.40;;;;;;;;;;5038637;28;20051;-58
2021/04/19 11:41:58;;;;;;;8.68;4.50;;;;;;;;;;5042066;28;20052;-57
2021/04/19 11:44:39;;;;;;;8.77;4.72;;;;;;;;;;5039323;28;20045;-60
2021/04/19 11:47:06;;;;;;;7.72;3.80;;;;;;;;;;5043160;28;20073;-57
2021/04/19 11:49:32;;;;;;;8.30;3.90;;;;;;;;;;5038764;28;20041;-58
2021/04/19 11:51:58;;;;;;;7.82;3.78;;;;;;;;;;5042162;28;20038;-59
2021/04/19 11:54:24;;;;;;;8.32;4.72;;;;;;;;;;5039048;28;20040;-59
2021/04/19 11:56:50;;;;;;;9.48;4.50;;;;;;;;;;5041619;28;20057;-59
2021/04/19 11:59:16;;;;;;;7.93;4.25;;;;;;;;;;5038577;28;20044;-56
2021/04/19 12:01:42;;;;;;;8.27;3.97;;;;;;;;;;5041878;28;20049;-57
2021/04/19 12:04:11;;;;;;;7.20;3.70;;;;;;;;;;5040850;28;20041;-60
2021/04/19 12:06:37;;;;;;;7.55;3.60;;;;;;;;;;5038044;28;20052;-58
2021/04/19 12:09:04;;;;;;;9.23;4.13;;;;;;;;;;5041422;28;20111;-58
2021/04/19 12:11:30;;;;;;;7.55;3.85;;;;;;;;;;5039707;28;20044;-60
2021/04/19 12:14:01;;;;;;;7.45;3.78;;;;;;;;;;5043682;28;20049;-59
2021/04/19 12:16:28;;;;;;;7.32;3.88;;;;;;;;;;5037686;28;20085;-58
2021/04/19 12:18:54;;;;;;;6.68;3.90;;;;;;;;;;5041882;28;20041;-60
2021/04/19 12:21:21;;;;;;;7.10;3.88;;;;;;;;;;5039068;28;20531;-59
2021/04/19 12:23:48;;;;;;;9.85;4.30;;;;;;;;;;5042962;28;20045;-59
2021/04/19 12:26:14;;;;;;;7.85;4.05;;;;;;;;;;5038765;28;20044;-58
2021/04/19 12:28:40;;;;;;;7.25;3.63;;;;;;;;;;5039958;28;20033;-58
2021/04/19 12:31:07;;;;;;;9.40;4.22;;;;;;;;;;5038343;28;20057;-56
2021/04/19 12:33:33;;;;;;;13.07;4.25;;;;;;;;;;5042451;28;20041;-59
2021/04/19 12:35:59;;;;;;;8.85;4.53;;;;;;;;;;5056455;28;20045;-58
2021/04/19 12:38:28;;;;;;;12.10;3.70;;;;;;;;;;5058494;28;20057;-58
2021/04/19 12:40:54;;;;;;;10.45;4.60;;;;;;;;;;5038372;28;20037;-59
2021/04/19 12:43:21;;;;;;;10.75;3.72;;;;;;;;;;5044148;28;20052;-58
2021/04/19 12:45:47;;;;;;;7.13;3.80;;;;;;;;;;5044688;28;20052;-59
2021/04/19 12:48:18;;;;;;;7.45;3.92;;;;;;;;;;5035248;28;20045;-58
2021/04/19 12:50:44;;;;;;;9.02;3.80;;;;;;;;;;5022565;28;20180;-60
2021/04/19 12:53:10;;;;;;;8.75;4.43;;;;;;;;;;5035397;28;20049;-59
2021/04/19 12:55:38;;;;;;;8.23;4.10;;;;;;;;;;5041738;28;20044;-58
2021/04/19 12:58:04;;;;;;;11.98;4.38;;;;;;;;;;5035867;28;20044;-57
2021/04/19 13:00:30;;;;;;;12.13;4.43;;;;;;;;;;5040815;28;20064;-58
2021/04/19 13:02:56;;;;;;;7.20;3.60;;;;;;;;;;5036593;28;20052;-59
2021/04/19 13:05:24;;;;;;;10.35;4.45;;;;;;;;;;5040341;28;20049;-59
2021/04/19 13:07:50;;;;;;;14.50;4.25;;;;;;;;;;5027717;28;20045;-55
2021/04/19 13:10:17;;;;;;;13.55;4.68;;;;;;;;;;5011257;28;20048;-58
2021/04/19 13:12:44;;;;;;;16.70;4.35;;;;;;;;;;5017079;28;20033;-58
2021/04/19 13:15:11;;;;;;;9.43;4.60;;;;;;;;;;5020350;28;20046;-56
2021/04/19 13:17:37;;;;;;;8.15;4.53;;;;;;;;;;5015953;28;20120;-58
2021/04/19 13:20:04;;;;;;;7.55;4.20;;;;;;;;;;5022936;28;20057;-57
2021/04/19 13:22:30;;;;;;;8.73;4.78;;;;;;;;;;5018810;28;20057;-56
2021/04/19 13:24:56;;;;;;;8.80;4.65;;;;;;;;;;5041152;28;20052;-57
2021/04/19 13:27:22;;;;;;;8.30;4.60;;;;;;;;;;5042686;28;20049;-56
2021/04/19 13:29:52;;;;;;;11.77;4.93;;;;;;;;;;5018135;28;20041;-57
2021/04/19 13:32:18;;;;;;;8.50;4.60;;;;;;;;;;5018801;28;20057;-59
2021/04/19 13:34:44;;;;;;;8.35;4.50;;;;;;;;;;5003021;28;20127;-59
2021/04/19 13:37:11;;;;;;;11.13;4.88;;;;;;;;;;5000554;28;20031;-59
2021/04/19 13:39:39;;;;;;;10.98;5.18;;;;;;;;;;5011121;28;20077;-57
2021/04/19 13:42:05;;;;;;;13.97;5.53;;;;;;;;;;5021167;28;20109;-57
2021/04/19 13:44:31;;;;;;;12.90;5.97;;;;;;;;;;5018786;28;20042;-59
2021/04/19 13:46:58;;;;;;;13.20;6.68;;;;;;;;;;5021776;28;20042;-58
2021/04/19 13:49:25;;;;;;;14.05;6.97;;;;;;;;;;5025151;28;20041;-58
2021/04/19 13:51:51;;;;;;;19.42;8.07;;;;;;;;;;5041335;28;20045;-59
2021/04/19 13:54:18;;;;;;;18.92;7.20;;;;;;;;;;5030881;28;20068;-59
2021/04/19 13:56:44;;;;;;;23.58;6.43;;;;;;;;;;5041209;28;20041;-60
2021/04/19 13:59:10;;;;;;;19.60;6.45;;;;;;;;;;5034394;28;20060;-59
2021/04/19 14:01:37;;;;;;;9.77;5.53;;;;;;;;;;5020778;28;20041;-59
2021/04/19 14:04:04;;;;;;;24.77;5.65;;;;;;;;;;5035118;28;20041;-60
2021/04/19 14:06:30;;;;;;;25.08;6.45;;;;;;;;;;5041498;28;20037;-58
2021/04/19 14:08:56;;;;;;;15.43;6.10;;;;;;;;;;5040351;28;20029;-55
2021/04/19 14:11:22;;;;;;;14.98;6.70;;;;;;;;;;5039102;28;20049;-58
2021/04/19 14:13:48;;;;;;;12.93;6.32;;;;;;;;;;5042314;28;20052;-53
2021/04/19 14:16:14;;;;;;;24.70;6.68;;;;;;;;;;5036219;28;20087;-59
2021/04/19 14:18:41;;;;;;;12.40;6.07;;;;;;;;;;5043359;28;20037;-58
2021/04/19 14:21:08;;;;;;;11.65;6.32;;;;;;;;;;5039706;28;20046;-59
2021/04/19 14:23:34;;;;;;;13.10;5.80;;;;;;;;;;5042354;28;20052;-57
2021/04/19 14:26:03;;;;;;;86.95;7.55;;;;;;;;;;5037482;28;20048;-53
2021/04/19 14:28:30;;;;;;;15.55;7.00;;;;;;;;;;5040324;28;20037;-56
2021/04/19 14:30:56;;;;;;;14.48;6.35;;;;;;;;;;5036871;28;20045;-55
2021/04/19 14:33:22;;;;;;;12.10;5.75;;;;;;;;;;5040897;28;20041;-58
2021/04/19 14:35:48;;;;;;;8.77;4.47;;;;;;;;;;5038200;28;20105;-58
2021/04/19 14:38:15;;;;;;;10.98;5.43;;;;;;;;;;5039746;28;20053;-58